createdAt,value
2023-03-30T00:01:12.230Z,99850.63
2023-03-30T00:03:44.148Z,99851.02
2023-03-30T00:06:14.820Z,99847.10
2023-03-30T00:08:43.187Z,99846.04
2023-03-30T00:11:13.774Z,99846.52
2023-03-30T00:13:44.762Z,99844.84
2023-03-30T00:16:13.519Z,99845.55
2023-03-30T00:18:41.760Z,99850.05
2023-03-30T00:21:18.430Z,99846.83
2023-03-30T00:23:48.052Z,99842.63
2023-03-30T00:26:16.829Z,99840.06
2023-03-30T00:28:45.500Z,99842.74
2023-03-30T00:31:14.796Z,99846.29
2023-03-30T00:33:46.870Z,99842.04
2023-03-30T00:36:17.687Z,99842.39
2023-03-30T00:38:48.610Z,99840.59
2023-03-30T00:41:17.905Z,99840.83
2023-03-30T00:43:59.041Z,99841.43
2023-03-30T00:46:27.982Z,99841.94
2023-03-30T00:48:58.927Z,99842.20
2023-03-30T00:51:29.033Z,99846.24
2023-03-30T00:54:04.623Z,99848.80
2023-03-30T00:56:33.406Z,99849.84
2023-03-30T00:59:01.430Z,99851.45
2023-03-30T01:01:39.324Z,99852.55
2023-03-30T01:04:09.972Z,99857.02
2023-03-30T01:06:40.548Z,99859.79
2023-03-30T01:09:09.029Z,99856.48
2023-03-30T01:11:44.860Z,99862.46
2023-03-30T01:14:13.224Z,99863.86
2023-03-30T01:16:50.630Z,99867.21
2023-03-30T01:19:43.916Z,99871.47
2023-03-30T01:22:52.832Z,99867.41
2023-03-30T01:25:42.377Z,99874.92
2023-03-30T01:28:30.144Z,99877.45
2023-03-30T01:34:03.921Z,99881.27
2023-03-30T01:36:36.641Z,99884.65
2023-03-30T01:39:10.830Z,99884.66
2023-03-30T01:41:52.485Z,99885.86
2023-03-30T01:44:31.507Z,99884.33
2023-03-30T01:47:06.450Z,99887.14
2023-03-30T01:49:39.709Z,99890.20
2023-03-30T01:52:11.229Z,99893.80
2023-03-30T01:54:51.522Z,99894.55
2023-03-30T01:57:34.709Z,99895.89
2023-03-30T02:00:14.933Z,99898.25
2023-03-30T02:02:56.293Z,99904.24
2023-03-30T02:05:25.054Z,99909.50
2023-03-30T02:08:02.225Z,99908.48
2023-03-30T02:10:32.621Z,99912.32
2023-03-30T02:13:01.238Z,99911.45
2023-03-30T02:15:49.168Z,99913.50
2023-03-30T02:18:19.596Z,99916.89
2023-03-30T02:20:49.728Z,99919.23
2023-03-30T02:23:20.640Z,99922.67
2023-03-30T02:25:49.583Z,99922.48
2023-03-30T02:28:25.244Z,99917.93
2023-03-30T02:30:53.878Z,99921.52
2023-03-30T02:33:29.029Z,99925.70
2023-03-30T02:36:02.851Z,99927.17
2023-03-30T02:39:05.149Z,99928.23
2023-03-30T02:42:12.707Z,99927.32
2023-03-30T02:45:19.414Z,99928.96
2023-03-30T02:48:26.088Z,99930.61
2023-03-30T02:51:18.934Z,99934.59
2023-03-30T02:54:41.934Z,99937.17
2023-03-30T02:57:27.361Z,99934.91
2023-03-30T03:00:01.718Z,99940.04
2023-03-30T03:02:38.234Z,99939.55
2023-03-30T03:05:15.717Z,99939.17
2023-03-30T03:07:54.030Z,99941.56
2023-03-30T03:10:22.372Z,99944.25
2023-03-30T03:12:55.803Z,99942.41
2023-03-30T03:15:24.430Z,99948.15
2023-03-30T03:18:07.883Z,99949.84
2023-03-30T03:20:37.629Z,99951.13
2023-03-30T03:23:08.055Z,99954.08
2023-03-30T03:25:44.639Z,99957.92
2023-03-30T03:28:15.887Z,99960.53
2023-03-30T03:30:49.396Z,99965.64
2023-03-30T03:33:23.059Z,99966.15
2023-03-30T03:36:02.947Z,99966.88
2023-03-30T03:38:32.295Z,99970.20
2023-03-30T03:41:01.105Z,99970.39
2023-03-30T03:43:30.120Z,99968.30
2023-03-30T03:45:59.590Z,99969.23
2023-03-30T03:48:27.971Z,99972.48
2023-03-30T03:51:01.460Z,99971.98
2023-03-30T03:53:33.278Z,99968.33
2023-03-30T03:56:04.132Z,99972.99
2023-03-30T03:58:33.485Z,99976.59
2023-03-30T04:01:01.895Z,99971.15
2023-03-30T04:03:32.497Z,99973.96
2023-03-30T04:06:01.332Z,99975.14
2023-03-30T04:08:30.685Z,99972.59
2023-03-30T04:11:11.937Z,99980.70
2023-03-30T04:13:59.814Z,99983.10
2023-03-30T04:16:46.710Z,99979.90
2023-03-30T04:19:46.460Z,99978.86
2023-03-30T04:22:26.548Z,99977.59
2023-03-30T04:25:05.698Z,99979.73
2023-03-30T04:27:52.968Z,99983.21
2023-03-30T04:30:33.555Z,99986.79
2023-03-30T04:33:22.172Z,99985.82
2023-03-30T04:36:17.680Z,99986.75
2023-03-30T04:39:07.139Z,99984.91
2023-03-30T04:41:54.334Z,99979.61
2023-03-30T04:44:36.700Z,99977.86
2023-03-30T04:47:31.729Z,99985.96
2023-03-30T04:50:23.506Z,99985.91
2023-03-30T04:53:10.920Z,99987.83
2023-03-30T04:55:59.205Z,99993.15
2023-03-30T04:58:42.417Z,99991.55
2023-03-30T05:01:28.652Z,99994.98
2023-03-30T05:04:05.780Z,99997.53
2023-03-30T05:06:44.500Z,99998.36
2023-03-30T05:09:29.057Z,99998.59
2023-03-30T05:12:16.828Z,99997.38
2023-03-30T05:15:04.632Z,100005.25
2023-03-30T05:17:45.776Z,100005.80
2023-03-30T05:20:46.217Z,100000.14
2023-03-30T05:23:33.900Z,100006.97
2023-03-30T05:26:28.644Z,100010.56
2023-03-30T05:29:10.483Z,100007.88
2023-03-30T05:31:54.148Z,100006.09
2023-03-30T05:34:49.168Z,100007.84
2023-03-30T05:37:38.257Z,100009.95
2023-03-30T05:40:24.817Z,100009.84
2023-03-30T05:43:11.655Z,100016.02
2023-03-30T05:45:59.073Z,100013.85
2023-03-30T05:48:34.547Z,100018.57
2023-03-30T05:51:28.182Z,100017.05
2023-03-30T05:54:12.793Z,100025.80
2023-03-30T05:56:47.106Z,100024.05
2023-03-30T05:59:29.009Z,100022.92
2023-03-30T06:02:27.641Z,100014.05
2023-03-30T06:05:01.741Z,100012.30
2023-03-30T06:07:30.829Z,100014.42
2023-03-30T06:10:01.649Z,100011.23
2023-03-30T06:12:31.962Z,100011.73
2023-03-30T06:15:03.314Z,100012.88
2023-03-30T06:17:49.959Z,100010.00
2023-03-30T06:20:21.985Z,100017.23
2023-03-30T06:22:52.990Z,100017.95
2023-03-30T06:25:24.733Z,100021.35
2023-03-30T06:27:53.385Z,100020.11
2023-03-30T06:30:22.155Z,100025.05
2023-03-30T06:32:53.742Z,100024.92
2023-03-30T06:35:50.020Z,100024.57
2023-03-30T06:38:20.689Z,100022.14
2023-03-30T06:40:49.127Z,100020.41
2023-03-30T06:43:21.293Z,100014.80
2023-03-30T06:46:08.491Z,100017.27
2023-03-30T06:48:36.916Z,100017.35
2023-03-30T06:51:31.233Z,100008.40
2023-03-30T06:54:00.209Z,100015.79
2023-03-30T06:56:28.177Z,100018.41
2023-03-30T06:59:15.629Z,100015.95
2023-03-30T07:02:22.688Z,100012.98
2023-03-30T07:04:52.879Z,100010.80
2023-03-30T07:07:26.462Z,100007.84
2023-03-30T07:09:54.541Z,100006.75
2023-03-30T07:12:25.585Z,100007.77
2023-03-30T07:14:55.094Z,100009.46
2023-03-30T07:17:26.827Z,100012.55
2023-03-30T07:19:59.027Z,100009.64
2023-03-30T07:22:28.181Z,100007.99
2023-03-30T07:24:57.109Z,99998.59
2023-03-30T07:27:27.284Z,99990.11
2023-03-30T07:30:04.616Z,99990.86
2023-03-30T07:32:41.869Z,99989.42
2023-03-30T07:35:10.596Z,99988.92
2023-03-30T07:37:40.193Z,99983.51
2023-03-30T07:40:13.935Z,99982.90
2023-03-30T07:42:43.682Z,99985.88
2023-03-30T07:45:14.203Z,99983.24
2023-03-30T07:47:47.213Z,99977.65
2023-03-30T07:50:17.198Z,99969.44
2023-03-30T07:52:46.251Z,99972.86
2023-03-30T07:55:15.336Z,99968.80
2023-03-30T07:57:50.080Z,99971.45
2023-03-30T08:00:19.361Z,99972.89
2023-03-30T08:03:08.511Z,99975.13
2023-03-30T08:05:39.121Z,99969.86
2023-03-30T08:08:16.309Z,99972.59
2023-03-30T08:10:46.100Z,99967.84
2023-03-30T08:13:15.755Z,99969.71
2023-03-30T08:15:45.858Z,99970.26
2023-03-30T08:18:14.723Z,99965.20
2023-03-30T08:20:45.625Z,99957.23
2023-03-30T08:23:14.151Z,99956.41
2023-03-30T08:25:43.733Z,99959.35
2023-03-30T08:28:14.902Z,99961.73
2023-03-30T08:30:43.113Z,99962.21
2023-03-30T08:33:13.669Z,99958.00
2023-03-30T08:35:47.756Z,99953.64
2023-03-30T08:38:17.579Z,99951.17
2023-03-30T08:40:48.131Z,99946.36
2023-03-30T08:43:30.636Z,99942.85
2023-03-30T08:46:05.046Z,99938.43
2023-03-30T08:48:38.027Z,99934.22
2023-03-30T08:51:13.023Z,99931.21
2023-03-30T08:53:42.077Z,99930.77
2023-03-30T08:56:18.098Z,99921.59
2023-03-30T08:59:24.201Z,99924.50
2023-03-30T09:02:00.983Z,99923.41
2023-03-30T09:04:41.502Z,99924.98
2023-03-30T09:07:26.605Z,99925.58
2023-03-30T09:09:55.982Z,99921.83
2023-03-30T09:13:00.417Z,99921.31
2023-03-30T09:15:36.940Z,99918.97
2023-03-30T09:18:07.245Z,99914.89
2023-03-30T09:20:37.560Z,99905.58
2023-03-30T09:23:14.109Z,99912.64
2023-03-30T09:26:01.116Z,99906.00
2023-03-30T09:29:00.223Z,99904.70
2023-03-30T09:31:46.763Z,99899.77
2023-03-30T09:34:25.153Z,99903.94
2023-03-30T09:37:13.286Z,99900.34
2023-03-30T09:39:41.635Z,99895.58
2023-03-30T09:42:34.448Z,99889.42
2023-03-30T09:45:42.044Z,99887.60
2023-03-30T09:48:10.214Z,99886.15
2023-03-30T09:50:46.909Z,99883.42
2023-03-30T09:53:29.557Z,99881.30
2023-03-30T09:56:19.788Z,99882.64
2023-03-30T09:58:48.460Z,99876.04
2023-03-30T10:01:18.695Z,99872.35
2023-03-30T10:04:12.868Z,99867.73
2023-03-30T10:06:49.238Z,99858.59
2023-03-30T10:09:18.479Z,99863.86
2023-03-30T10:11:48.979Z,99863.52
2023-03-30T10:14:32.043Z,99859.67
2023-03-30T10:17:07.068Z,99861.01
2023-03-30T10:19:37.997Z,99862.25
2023-03-30T10:22:17.906Z,99860.02
2023-03-30T10:24:55.465Z,99855.76
2023-03-30T10:27:34.332Z,99851.12
2023-03-30T10:30:12.311Z,99843.38
2023-03-30T10:32:44.972Z,99838.30
2023-03-30T10:35:19.973Z,99838.97
2023-03-30T10:37:48.327Z,99835.58
2023-03-30T10:40:41.071Z,99833.75
2023-03-30T10:43:23.641Z,99831.86
2023-03-30T10:46:01.475Z,99834.41
2023-03-30T10:49:05.352Z,99825.58
2023-03-30T10:51:39.835Z,99822.20
2023-03-30T10:54:32.569Z,99819.89
2023-03-30T10:57:14.917Z,99823.42
2023-03-30T10:59:57.971Z,99820.36
2023-03-30T11:02:53.903Z,99820.78
2023-03-30T11:05:35.989Z,99819.27
2023-03-30T11:08:16.319Z,99817.96
2023-03-30T11:10:48.557Z,99813.22
2023-03-30T11:13:28.052Z,99803.66
2023-03-30T11:16:03.449Z,99796.94
2023-03-30T11:18:38.932Z,99796.42
2023-03-30T11:21:31.851Z,99789.48
2023-03-30T11:24:18.922Z,99787.42
2023-03-30T11:26:56.381Z,99785.17
2023-03-30T11:29:33.820Z,99784.34
2023-03-30T11:32:30.280Z,99781.95
2023-03-30T11:35:09.623Z,99780.36
2023-03-30T11:37:51.354Z,99780.68
2023-03-30T11:40:26.984Z,99779.98
2023-03-30T11:42:55.470Z,99780.95
2023-03-30T11:45:43.501Z,99776.35
2023-03-30T11:48:25.942Z,99771.04
2023-03-30T11:51:09.477Z,99764.33
2023-03-30T11:53:52.451Z,99764.97
2023-03-30T11:56:28.392Z,99761.27
2023-03-30T11:59:04.939Z,99761.23
2023-03-30T12:02:04.107Z,99757.69
2023-03-30T12:04:45.331Z,99759.21
2023-03-30T12:07:46.267Z,99753.17
2023-03-30T12:10:19.130Z,99756.37
2023-03-30T12:13:02.644Z,99753.47
2023-03-30T12:15:36.800Z,99750.14
2023-03-30T12:18:29.690Z,99753.79
2023-03-30T12:21:18.312Z,99753.96
2023-03-30T12:24:20.214Z,99755.23
2023-03-30T12:27:02.202Z,99753.40
2023-03-30T12:30:02.536Z,99756.21
2023-03-30T12:32:33.669Z,99752.83
2023-03-30T12:35:01.857Z,99748.67
2023-03-30T12:37:42.328Z,99743.83
2023-03-30T12:40:31.904Z,99740.02
2023-03-30T12:43:14.486Z,99740.27
2023-03-30T12:46:20.408Z,99744.65
2023-03-30T12:49:12.003Z,99737.52
2023-03-30T12:51:50.279Z,99737.36
2023-03-30T12:54:25.244Z,99735.76
2023-03-30T12:57:07.818Z,99733.20
2023-03-30T13:00:09.312Z,99729.48
2023-03-30T13:03:04.830Z,99719.55
2023-03-30T13:05:35.842Z,99720.90
2023-03-30T13:08:09.397Z,99718.17
2023-03-30T13:10:42.395Z,99718.85
2023-03-30T13:13:19.284Z,99721.48
2023-03-30T13:15:54.714Z,99723.25
2023-03-30T13:18:35.163Z,99724.29
2023-03-30T13:21:17.728Z,99729.15
2023-03-30T13:23:59.549Z,99727.52
2023-03-30T13:26:35.149Z,99725.14
2023-03-30T13:29:11.745Z,99722.77
2023-03-30T13:31:52.591Z,99719.92
2023-03-30T13:34:38.573Z,99717.67
2023-03-30T13:37:09.871Z,99710.58
2023-03-30T13:39:44.961Z,99706.99
2023-03-30T13:42:32.257Z,99698.73
2023-03-30T13:45:41.961Z,99688.92
2023-03-30T13:48:19.948Z,99689.45
2023-03-30T13:51:45.426Z,99688.24
2023-03-30T13:54:19.534Z,99688.52
2023-03-30T13:56:49.173Z,99691.30
2023-03-30T13:59:18.233Z,99692.55
2023-03-30T14:01:48.501Z,99692.91
2023-03-30T14:04:16.274Z,99687.37
2023-03-30T14:06:48.636Z,99693.14
2023-03-30T14:09:27.136Z,99686.90
2023-03-30T14:11:58.358Z,99684.66
2023-03-30T14:14:29.468Z,99679.84
2023-03-30T14:16:57.401Z,99677.68
2023-03-30T14:19:46.162Z,99676.45
2023-03-30T14:22:18.546Z,99673.69
2023-03-30T14:25:02.135Z,99671.91
2023-03-30T14:27:38.009Z,99671.34
2023-03-30T14:30:18.507Z,99663.55
2023-03-30T14:32:45.627Z,99664.58
2023-03-30T14:35:18.795Z,99661.17
2023-03-30T14:37:51.866Z,99664.25
2023-03-30T14:40:19.173Z,99662.21
2023-03-30T14:42:46.659Z,99663.38
2023-03-30T14:45:18.413Z,99657.75
2023-03-30T14:47:48.852Z,99656.70
2023-03-30T14:50:15.492Z,99655.00
2023-03-30T14:52:43.922Z,99649.86
2023-03-30T14:55:16.770Z,99646.45
2023-03-30T14:57:46.895Z,99647.70
2023-03-30T15:00:20.017Z,99645.70
2023-03-30T15:02:59.394Z,99643.38
2023-03-30T15:05:32.863Z,99638.35
2023-03-30T15:08:00.036Z,99635.26
2023-03-30T15:10:49.265Z,99639.33
2023-03-30T15:13:32.984Z,99635.73
2023-03-30T15:16:00.692Z,99632.67
2023-03-30T15:18:29.831Z,99633.65
2023-03-30T15:20:57.057Z,99633.95
2023-03-30T15:23:24.743Z,99632.61
2023-03-30T15:25:58.280Z,99629.41
2023-03-30T15:28:25.344Z,99629.95
2023-03-30T15:30:52.754Z,99633.67
2023-03-30T15:33:41.499Z,99630.27
2023-03-30T15:36:20.077Z,99628.43
2023-03-30T15:38:55.362Z,99626.88
2023-03-30T15:41:24.008Z,99626.07
2023-03-30T15:44:21.100Z,99628.42
2023-03-30T15:46:48.850Z,99625.33
2023-03-30T15:49:17.938Z,99627.20
2023-03-30T15:52:01.348Z,99624.05
2023-03-30T15:54:45.609Z,99619.98
2023-03-30T15:57:28.472Z,99617.96
2023-03-30T16:00:04.409Z,99620.59
2023-03-30T16:02:38.911Z,99621.98
2023-03-30T16:05:08.261Z,99621.89
2023-03-30T16:07:36.879Z,99624.67
2023-03-30T16:10:05.699Z,99623.23
2023-03-30T16:12:34.749Z,99624.35
2023-03-30T16:15:02.146Z,99626.29
2023-03-30T16:17:29.431Z,99627.13
2023-03-30T16:19:57.844Z,99629.80
2023-03-30T16:22:24.649Z,99629.42
2023-03-30T16:24:52.720Z,99626.86
2023-03-30T16:27:19.630Z,99628.50
2023-03-30T16:29:47.374Z,99632.08
2023-03-30T16:32:15.126Z,99638.47
2023-03-30T16:34:43.074Z,99637.46
2023-03-30T16:37:13.546Z,99645.41
2023-03-30T16:39:40.423Z,99641.46
2023-03-30T16:42:10.132Z,99644.61
2023-03-30T16:44:38.940Z,99644.30
2023-03-30T16:47:07.127Z,99644.91
2023-03-30T16:49:34.851Z,99651.27
2023-03-30T16:52:02.289Z,99650.84
2023-03-30T16:54:32.412Z,99647.59
2023-03-30T16:57:01.550Z,99648.81
2023-03-30T16:59:33.686Z,99659.00
2023-03-30T17:02:02.027Z,99654.77
2023-03-30T17:04:29.611Z,99659.46
2023-03-30T17:06:57.147Z,99657.67
2023-03-30T17:09:24.130Z,99657.77
2023-03-30T17:11:51.888Z,99654.29
2023-03-30T17:14:20.403Z,99652.66
2023-03-30T17:16:47.138Z,99652.40
2023-03-30T17:19:15.710Z,99652.92
2023-03-30T17:21:45.225Z,99656.23
2023-03-30T17:24:11.953Z,99651.73
2023-03-30T17:26:41.098Z,99650.58
2023-03-30T17:29:08.966Z,99646.80
2023-03-30T17:31:37.525Z,99644.10
2023-03-30T17:34:06.770Z,99647.71
2023-03-30T17:36:33.546Z,99646.34
2023-03-30T17:39:04.184Z,99648.06
2023-03-30T17:41:33.209Z,99646.28
2023-03-30T17:44:00.240Z,99646.14
2023-03-30T17:46:27.884Z,99648.00
2023-03-30T17:48:54.792Z,99640.58
2023-03-30T17:51:22.845Z,99642.88
2023-03-30T17:53:50.520Z,99641.23
2023-03-30T17:56:24.425Z,99639.46
2023-03-30T17:58:52.645Z,99641.33
2023-03-30T18:01:20.284Z,99640.27
2023-03-30T18:03:48.105Z,99644.81
2023-03-30T18:06:15.117Z,99641.44
2023-03-30T18:08:43.370Z,99644.14
2023-03-30T18:11:10.902Z,99640.73
2023-03-30T18:13:38.525Z,99640.13
2023-03-30T18:16:05.642Z,99642.61
2023-03-30T18:18:32.672Z,99640.69
2023-03-30T18:21:02.234Z,99638.39
2023-03-30T18:23:35.043Z,99635.98
2023-03-30T18:26:08.344Z,99632.48
2023-03-30T18:28:39.800Z,99632.91
2023-03-30T18:31:08.286Z,99626.48
2023-03-30T18:33:35.767Z,99630.64
2023-03-30T18:36:05.473Z,99630.75
2023-03-30T18:38:32.849Z,99631.13
2023-03-30T18:41:00.949Z,99632.16
2023-03-30T18:43:28.624Z,99632.26
2023-03-30T18:45:58.856Z,99622.11
2023-03-30T18:48:29.593Z,99625.13
2023-03-30T18:50:57.025Z,99624.52
2023-03-30T18:53:27.269Z,99618.09
2023-03-30T18:55:58.043Z,99610.91
2023-03-30T18:58:29.845Z,99599.11
2023-03-30T19:01:00.339Z,99594.92
2023-03-30T19:03:28.042Z,99593.18
2023-03-30T19:05:55.459Z,99595.42
2023-03-30T19:08:23.288Z,99594.23
2023-03-30T19:10:51.814Z,99590.23
2023-03-30T19:13:19.761Z,99585.17
2023-03-30T19:15:49.069Z,99581.56
2023-03-30T19:18:17.263Z,99578.26
2023-03-30T19:20:43.922Z,99574.66
2023-03-30T19:23:15.071Z,99577.23
2023-03-30T19:25:43.256Z,99579.54
2023-03-30T19:28:15.339Z,99579.51
2023-03-30T19:30:42.214Z,99577.75
2023-03-30T19:33:11.447Z,99580.19
2023-03-30T19:35:42.332Z,99576.56
2023-03-30T19:38:09.255Z,99578.16
2023-03-30T19:40:37.513Z,99571.98
2023-03-30T19:43:04.241Z,99568.77
2023-03-30T19:45:31.223Z,99566.94
2023-03-30T19:47:58.712Z,99564.61
2023-03-30T19:50:26.072Z,99563.23
2023-03-30T19:52:54.393Z,99559.14
2023-03-30T19:55:21.593Z,99552.34
2023-03-30T19:57:48.395Z,99549.16
2023-03-30T20:00:16.777Z,99543.36
2023-03-30T20:02:58.737Z,99542.28
2023-03-30T20:05:25.654Z,99537.75
2023-03-30T20:07:52.278Z,99532.64
2023-03-30T20:10:20.911Z,99530.95
2023-03-30T20:12:48.841Z,99528.36
2023-03-30T20:15:19.271Z,99523.23
2023-03-30T20:17:48.184Z,99519.82
2023-03-30T20:20:22.248Z,99522.27
2023-03-30T20:22:53.473Z,99516.86
2023-03-30T20:25:21.141Z,99514.60
2023-03-30T20:27:52.416Z,99513.61
2023-03-30T20:30:19.891Z,99510.49
2023-03-30T20:32:59.745Z,99512.25
2023-03-30T20:35:31.600Z,99506.41
2023-03-30T20:37:58.558Z,99502.52
2023-03-30T20:40:26.682Z,99501.61
2023-03-30T20:43:01.896Z,99497.56
2023-03-30T20:45:29.856Z,99493.27
2023-03-30T20:47:56.730Z,99497.85
2023-03-30T20:50:23.388Z,99493.80
2023-03-30T20:52:52.528Z,99488.45
2023-03-30T20:55:20.476Z,99486.95
2023-03-30T20:57:47.266Z,99478.89
2023-03-30T21:00:14.980Z,99479.95
2023-03-30T21:02:42.324Z,99478.12
2023-03-30T21:05:09.223Z,99471.11
2023-03-30T21:07:46.367Z,99467.02
2023-03-30T21:10:15.399Z,99464.33
2023-03-30T21:12:42.788Z,99462.77
2023-03-30T21:15:14.539Z,99458.47
2023-03-30T21:17:41.905Z,99456.23
2023-03-30T21:20:10.634Z,99449.61
2023-03-30T21:22:41.749Z,99442.81
2023-03-30T21:25:09.319Z,99432.32
2023-03-30T21:27:36.109Z,99425.38
2023-03-30T21:30:03.284Z,99417.89
2023-03-30T21:32:32.886Z,99417.31
2023-03-30T21:34:59.874Z,99415.60
2023-03-30T21:37:29.026Z,99415.79
2023-03-30T21:39:55.770Z,99415.80
2023-03-30T21:42:22.443Z,99411.67
2023-03-30T21:44:49.103Z,99405.98
2023-03-30T21:47:15.998Z,99405.69
2023-03-30T21:49:42.650Z,99402.44
2023-03-30T21:52:09.317Z,99404.20
2023-03-30T21:54:37.635Z,99402.16
2023-03-30T21:57:05.496Z,99403.21
2023-03-30T21:59:32.532Z,99399.88
2023-03-30T22:01:59.301Z,99402.09
2023-03-30T22:04:26.345Z,99397.63
2023-03-30T22:06:53.451Z,99395.33
2023-03-30T22:09:20.387Z,99387.71
2023-03-30T22:11:54.851Z,99387.69
2023-03-30T22:14:21.972Z,99384.30
2023-03-30T22:16:48.656Z,99381.73
2023-03-30T22:19:24.022Z,99375.25
2023-03-30T22:21:52.353Z,99370.90
2023-03-30T22:24:19.675Z,99365.60
2023-03-30T22:26:48.864Z,99359.55
2023-03-30T22:29:16.740Z,99355.44
2023-03-30T22:31:44.925Z,99347.40
2023-03-30T22:34:12.695Z,99342.27
2023-03-30T22:36:40.424Z,99341.48
2023-03-30T22:39:14.134Z,99340.06
2023-03-30T22:41:41.139Z,99340.26
2023-03-30T22:44:08.613Z,99342.35
2023-03-30T22:46:36.971Z,99333.27
2023-03-30T22:49:03.965Z,99334.14
2023-03-30T22:51:37.459Z,99335.42
2023-03-30T22:54:04.656Z,99335.27
2023-03-30T22:56:31.421Z,99331.95
2023-03-30T22:58:59.180Z,99333.72
2023-03-30T23:01:28.269Z,99327.44
2023-03-30T23:03:58.960Z,99329.95
2023-03-30T23:06:26.122Z,99331.04
2023-03-30T23:08:53.898Z,99327.84
2023-03-30T23:11:21.040Z,99322.52
2023-03-30T23:13:49.415Z,99321.29
2023-03-30T23:16:16.021Z,99318.40
2023-03-30T23:18:44.922Z,99315.08
2023-03-30T23:21:14.146Z,99308.30
2023-03-30T23:23:41.478Z,99307.21
2023-03-30T23:26:10.098Z,99304.28
2023-03-30T23:28:38.672Z,99307.91
2023-03-30T23:31:07.442Z,99303.98
2023-03-30T23:33:34.458Z,99299.13
2023-03-30T23:36:01.403Z,99297.05
2023-03-30T23:38:28.215Z,99292.10
2023-03-30T23:40:58.754Z,99294.42
2023-03-30T23:43:25.531Z,99290.73
2023-03-30T23:45:52.768Z,99289.77
2023-03-30T23:48:19.756Z,99286.19
2023-03-30T23:50:46.663Z,99284.96
2023-03-30T23:53:13.370Z,99279.08
2023-03-30T23:55:40.648Z,99273.89
2023-03-30T23:58:07.348Z,99270.09
